sensor_id;sensor_type;location;lat;lon;timestamp;P1;durP1;ratioP1;P2;durP2;ratioP2
19905;SDS011;10115;50.906;4.438;2023-04-19T00:00:58;17.83;;;15.00;;
19905;SDS011;10115;50.906;4.438;2023-04-19T00:03:26;18.97;;;14.37;;
19905;SDS011;10115;50.906;4.438;2023-04-19T00:05:54;16.83;;;14.10;;
19905;SDS011;10115;50.906;4.438;2023-04-19T00:08:23;19.83;;;14.37;;
19905;SDS011;10115;50.906;4.438;2023-04-19T00:10:49;25.43;;;15.67;;
19905;SDS011;10115;50.906;4.438;2023-04-19T00:13:15;18.30;;;14.23;;
19905;SDS011;10115;50.906;4.438;2023-04-19T00:15:41;17.60;;;14.33;;
19905;SDS011;10115;50.906;4.438;2023-04-19T00:18:06;19.37;;;12.73;;
19905;SDS011;10115;50.906;4.438;2023-04-19T00:20:32;16.10;;;13.37;;
19905;SDS011;10115;50.906;4.438;2023-04-19T00:22:58;18.03;;;14.40;;
19905;SDS011;10115;50.906;4.438;2023-04-19T00:25:24;17.40;;;14.40;;
19905;SDS011;10115;50.906;4.438;2023-04-19T00:27:50;18.30;;;15.17;;
19905;SDS011;10115;50.906;4.438;2023-04-19T00:30:16;17.17;;;14.30;;
19905;SDS011;10115;50.906;4.438;2023-04-19T00:32:42;19.80;;;14.70;;
19905;SDS011;10115;50.906;4.438;2023-04-19T00:35:07;20.97;;;14.37;;
19905;SDS011;10115;50.906;4.438;2023-04-19T00:37:33;22.53;;;15.23;;
19905;SDS011;10115;50.906;4.438;2023-04-19T00:39:59;19.17;;;14.13;;
19905;SDS011;10115;50.906;4.438;2023-04-19T00:42:25;20.23;;;15.40;;
19905;SDS011;10115;50.906;4.438;2023-04-19T00:44:51;14.33;;;12.40;;
19905;SDS011;10115;50.906;4.438;2023-04-19T00:47:16;16.17;;;14.50;;
19905;SDS011;10115;50.906;4.438;2023-04-19T00:49:42;24.67;;;15.63;;
19905;SDS011;10115;50.906;4.438;2023-04-19T00:52:08;21.57;;;14.10;;
19905;SDS011;10115;50.906;4.438;2023-04-19T00:54:34;20.53;;;15.80;;
19905;SDS011;10115;50.906;4.438;2023-04-19T00:57:00;17.63;;;13.90;;
19905;SDS011;10115;50.906;4.438;2023-04-19T00:59:26;17.57;;;14.10;;
19905;SDS011;10115;50.906;4.438;2023-04-19T01:01:53;20.23;;;14.03;;
19905;SDS011;10115;50.906;4.438;2023-04-19T01:04:18;22.17;;;14.63;;
19905;SDS011;10115;50.906;4.438;2023-04-19T01:06:46;22.17;;;15.07;;
19905;SDS011;10115;50.906;4.438;2023-04-19T01:09:12;20.63;;;14.97;;
19905;SDS011;10115;50.906;4.438;2023-04-19T01:11:38;20.17;;;14.67;;
19905;SDS011;10115;50.906;4.438;2023-04-19T01:14:03;20.93;;;14.80;;
19905;SDS011;10115;50.906;4.438;2023-04-19T01:16:29;23.90;;;15.57;;
19905;SDS011;10115;50.906;4.438;2023-04-19T01:18:57;23.23;;;15.50;;
19905;SDS011;10115;50.906;4.438;2023-04-19T01:21:23;17.60;;;14.03;;
19905;SDS011;10115;50.906;4.438;2023-04-19T01:23:48;22.07;;;16.53;;
19905;SDS011;10115;50.906;4.438;2023-04-19T01:26:14;24.33;;;14.87;;
19905;SDS011;10115;50.906;4.438;2023-04-19T01:28:40;19.13;;;14.60;;
19905;SDS011;10115;50.906;4.438;2023-04-19T01:31:06;19.40;;;13.70;;
19905;SDS011;10115;50.906;4.438;2023-04-19T01:33:32;17.47;;;15.07;;
19905;SDS011;10115;50.906;4.438;2023-04-19T01:35:57;22.90;;;13.93;;
19905;SDS011;10115;50.906;4.438;2023-04-19T01:38:23;20.13;;;14.67;;
19905;SDS011;10115;50.906;4.438;2023-04-19T01:40:49;18.93;;;13.90;;
19905;SDS011;10115;50.906;4.438;2023-04-19T01:43:15;17.67;;;15.47;;
19905;SDS011;10115;50.906;4.438;2023-04-19T01:45:41;17.83;;;14.40;;
19905;SDS011;10115;50.906;4.438;2023-04-19T01:48:07;20.67;;;14.77;;
19905;SDS011;10115;50.906;4.438;2023-04-19T01:50:33;20.13;;;15.80;;
19905;SDS011;10115;50.906;4.438;2023-04-19T01:52:59;23.30;;;15.53;;
19905;SDS011;10115;50.906;4.438;2023-04-19T01:55:25;15.50;;;13.73;;
19905;SDS011;10115;50.906;4.438;2023-04-19T01:57:51;23.40;;;16.37;;
19905;SDS011;10115;50.906;4.438;2023-04-19T02:00:17;23.87;;;15.80;;
19905;SDS011;10115;50.906;4.438;2023-04-19T02:02:43;17.97;;;15.30;;
19905;SDS011;10115;50.906;4.438;2023-04-19T02:05:09;21.60;;;15.70;;
19905;SDS011;10115;50.906;4.438;2023-04-19T02:07:35;21.27;;;13.27;;
19905;SDS011;10115;50.906;4.438;2023-04-19T02:10:01;16.63;;;13.17;;
19905;SDS011;10115;50.906;4.438;2023-04-19T02:12:28;18.70;;;13.83;;
19905;SDS011;10115;50.906;4.438;2023-04-19T02:14:55;20.37;;;14.20;;
19905;SDS011;10115;50.906;4.438;2023-04-19T02:17:26;21.20;;;15.40;;
19905;SDS011;10115;50.906;4.438;2023-04-19T02:19:51;19.77;;;15.43;;
19905;SDS011;10115;50.906;4.438;2023-04-19T02:22:17;18.07;;;12.93;;
19905;SDS011;10115;50.906;4.438;2023-04-19T02:24:44;25.27;;;15.57;;
19905;SDS011;10115;50.906;4.438;2023-04-19T02:27:09;29.00;;;16.27;;
19905;SDS011;10115;50.906;4.438;2023-04-19T02:29:36;24.50;;;14.00;;
19905;SDS011;10115;50.906;4.438;2023-04-19T02:32:02;15.93;;;13.13;;
19905;SDS011;10115;50.906;4.438;2023-04-19T02:34:30;23.67;;;13.83;;
19905;SDS011;10115;50.906;4.438;2023-04-19T02:36:56;19.87;;;14.83;;
19905;SDS011;10115;50.906;4.438;2023-04-19T02:39:22;17.53;;;13.03;;
19905;SDS011;10115;50.906;4.438;2023-04-19T02:41:48;20.33;;;14.87;;
19905;SDS011;10115;50.906;4.438;2023-04-19T02:44:14;21.40;;;14.20;;
19905;SDS011;10115;50.906;4.438;2023-04-19T02:46:40;19.53;;;14.03;;
19905;SDS011;10115;50.906;4.438;2023-04-19T02:49:06;17.93;;;15.03;;
19905;SDS011;10115;50.906;4.438;2023-04-19T02:51:32;17.77;;;14.00;;
19905;SDS011;10115;50.906;4.438;2023-04-19T02:53:57;17.93;;;14.87;;
19905;SDS011;10115;50.906;4.438;2023-04-19T02:56:23;18.90;;;14.20;;
19905;SDS011;10115;50.906;4.438;2023-04-19T02:58:48;18.97;;;15.47;;
19905;SDS011;10115;50.906;4.438;2023-04-19T03:01:14;23.17;;;14.77;;
19905;SDS011;10115;50.906;4.438;2023-04-19T03:03:40;19.80;;;14.27;;
19905;SDS011;10115;50.906;4.438;2023-04-19T03:06:06;20.10;;;14.10;;
19905;SDS011;10115;50.906;4.438;2023-04-19T03:08:32;16.53;;;13.60;;
19905;SDS011;10115;50.906;4.438;2023-04-19T03:10:58;16.80;;;14.13;;
19905;SDS011;10115;50.906;4.438;2023-04-19T03:13:24;17.03;;;15.07;;
19905;SDS011;10115;50.906;4.438;2023-04-19T03:15:49;19.90;;;15.47;;
19905;SDS011;10115;50.906;4.438;2023-04-19T03:18:15;17.47;;;13.67;;
19905;SDS011;10115;50.906;4.438;2023-04-19T03:20:41;16.30;;;12.73;;
19905;SDS011;10115;50.906;4.438;2023-04-19T03:23:07;15.60;;;13.93;;
19905;SDS011;10115;50.906;4.438;2023-04-19T03:25:33;19.43;;;13.83;;
19905;SDS011;10115;50.906;4.438;2023-04-19T03:27:59;16.60;;;13.87;;
19905;SDS011;10115;50.906;4.438;2023-04-19T03:30:24;16.00;;;13.03;;
19905;SDS011;10115;50.906;4.438;2023-04-19T03:32:50;17.87;;;14.00;;
19905;SDS011;10115;50.906;4.438;2023-04-19T03:35:16;18.77;;;14.33;;
19905;SDS011;10115;50.906;4.438;2023-04-19T03:37:42;17.03;;;12.80;;
19905;SDS011;10115;50.906;4.438;2023-04-19T03:40:07;19.73;;;15.23;;
19905;SDS011;10115;50.906;4.438;2023-04-19T03:42:34;17.97;;;14.60;;
19905;SDS011;10115;50.906;4.438;2023-04-19T03:44:59;17.00;;;13.70;;
19905;SDS011;10115;50.906;4.438;2023-04-19T03:47:25;16.60;;;12.93;;
19905;SDS011;10115;50.906;4.438;2023-04-19T03:49:51;15.73;;;12.83;;
19905;SDS011;10115;50.906;4.438;2023-04-19T03:52:16;21.63;;;15.20;;
19905;SDS011;10115;50.906;4.438;2023-04-19T03:54:42;17.97;;;13.40;;
19905;SDS011;10115;50.906;4.438;2023-04-19T03:57:08;14.57;;;12.53;;
19905;SDS011;10115;50.906;4.438;2023-04-19T03:59:38;15.43;;;12.67;;
19905;SDS011;10115;50.906;4.438;2023-04-19T04:02:04;15.90;;;13.40;;
19905;SDS011;10115;50.906;4.438;2023-04-19T04:04:30;16.67;;;13.87;;
19905;SDS011;10115;50.906;4.438;2023-04-19T04:06:56;17.17;;;13.93;;
19905;SDS011;10115;50.906;4.438;2023-04-19T04:09:22;15.03;;;13.40;;
19905;SDS011;10115;50.906;4.438;2023-04-19T04:11:47;14.03;;;12.47;;
19905;SDS011;10115;50.906;4.438;2023-04-19T04:14:13;21.77;;;13.00;;
19905;SDS011;10115;50.906;4.438;2023-04-19T04:16:39;16.27;;;12.73;;
19905;SDS011;10115;50.906;4.438;2023-04-19T04:19:05;17.70;;;13.23;;
19905;SDS011;10115;50.906;4.438;2023-04-19T04:21:30;17.43;;;14.37;;
19905;SDS011;10115;50.906;4.438;2023-04-19T04:23:56;18.37;;;13.70;;
19905;SDS011;10115;50.906;4.438;2023-04-19T04:26:22;16.77;;;13.10;;
19905;SDS011;10115;50.906;4.438;2023-04-19T04:28:49;17.07;;;13.60;;
19905;SDS011;10115;50.906;4.438;2023-04-19T04:31:15;18.10;;;12.87;;
19905;SDS011;10115;50.906;4.438;2023-04-19T04:33:42;19.73;;;14.17;;
19905;SDS011;10115;50.906;4.438;2023-04-19T04:36:09;17.13;;;13.33;;
19905;SDS011;10115;50.906;4.438;2023-04-19T04:38:36;22.93;;;14.53;;
19905;SDS011;10115;50.906;4.438;2023-04-19T04:41:01;20.90;;;14.73;;
19905;SDS011;10115;50.906;4.438;2023-04-19T04:43:27;19.97;;;13.73;;
19905;SDS011;10115;50.906;4.438;2023-04-19T04:45:53;21.07;;;13.53;;
19905;SDS011;10115;50.906;4.438;2023-04-19T04:48:21;21.10;;;12.80;;
19905;SDS011;10115;50.906;4.438;2023-04-19T04:50:47;19.30;;;13.33;;
19905;SDS011;10115;50.906;4.438;2023-04-19T04:53:12;16.57;;;13.17;;
19905;SDS011;10115;50.906;4.438;2023-04-19T04:55:38;18.03;;;14.30;;
19905;SDS011;10115;50.906;4.438;2023-04-19T04:58:04;13.70;;;11.33;;
19905;SDS011;10115;50.906;4.438;2023-04-19T05:00:30;17.40;;;13.20;;
19905;SDS011;10115;50.906;4.438;2023-04-19T05:02:56;15.80;;;13.03;;
19905;SDS011;10115;50.906;4.438;2023-04-19T05:05:22;20.80;;;14.87;;
19905;SDS011;10115;50.906;4.438;2023-04-19T05:07:48;17.67;;;13.73;;
19905;SDS011;10115;50.906;4.438;2023-04-19T05:10:14;17.97;;;13.47;;
19905;SDS011;10115;50.906;4.438;2023-04-19T05:12:40;16.40;;;13.53;;
19905;SDS011;10115;50.906;4.438;2023-04-19T05:15:06;17.37;;;13.93;;
19905;SDS011;10115;50.906;4.438;2023-04-19T05:17:32;15.67;;;13.13;;
19905;SDS011;10115;50.906;4.438;2023-04-19T05:19:58;22.10;;;15.00;;
19905;SDS011;10115;50.906;4.438;2023-04-19T05:22:24;20.00;;;15.60;;
19905;SDS011;10115;50.906;4.438;2023-04-19T05:24:50;20.93;;;14.80;;
19905;SDS011;10115;50.906;4.438;2023-04-19T05:27:16;18.87;;;13.97;;
19905;SDS011;10115;50.906;4.438;2023-04-19T05:29:41;20.83;;;14.70;;
19905;SDS011;10115;50.906;4.438;2023-04-19T05:32:07;30.00;;;15.33;;
19905;SDS011;10115;50.906;4.438;2023-04-19T05:34:33;22.13;;;15.03;;
19905;SDS011;10115;50.906;4.438;2023-04-19T05:37:00;18.23;;;13.20;;
19905;SDS011;10115;50.906;4.438;2023-04-19T05:39:27;22.13;;;14.40;;
19905;SDS011;10115;50.906;4.438;2023-04-19T05:41:52;23.80;;;13.50;;
19905;SDS011;10115;50.906;4.438;2023-04-19T05:44:18;18.80;;;12.83;;
19905;SDS011;10115;50.906;4.438;2023-04-19T05:46:44;21.93;;;14.23;;
19905;SDS011;10115;50.906;4.438;2023-04-19T05:49:10;22.13;;;14.83;;
19905;SDS011;10115;50.906;4.438;2023-04-19T05:51:35;21.07;;;14.70;;
19905;SDS011;10115;50.906;4.438;2023-04-19T05:54:01;18.63;;;13.77;;
19905;SDS011;10115;50.906;4.438;2023-04-19T05:56:27;24.27;;;15.83;;
19905;SDS011;10115;50.906;4.438;2023-04-19T05:58:53;22.57;;;15.77;;
19905;SDS011;10115;50.906;4.438;2023-04-19T06:01:20;17.67;;;14.17;;
19905;SDS011;10115;50.906;4.438;2023-04-19T06:03:46;22.43;;;16.03;;
19905;SDS011;10115;50.906;4.438;2023-04-19T06:06:16;27.47;;;16.40;;
19905;SDS011;10115;50.906;4.438;2023-04-19T06:08:46;21.60;;;15.23;;
19905;SDS011;10115;50.906;4.438;2023-04-19T06:11:11;23.47;;;13.73;;
19905;SDS011;10115;50.906;4.438;2023-04-19T06:13:37;22.97;;;13.90;;
19905;SDS011;10115;50.906;4.438;2023-04-19T06:16:03;16.83;;;12.40;;
19905;SDS011;10115;50.906;4.438;2023-04-19T06:18:29;26.97;;;15.40;;
19905;SDS011;10115;50.906;4.438;2023-04-19T06:20:55;17.57;;;13.37;;
19905;SDS011;10115;50.906;4.438;2023-04-19T06:23:21;27.20;;;15.53;;
19905;SDS011;10115;50.906;4.438;2023-04-19T06:25:47;17.27;;;14.07;;
19905;SDS011;10115;50.906;4.438;2023-04-19T06:28:13;17.87;;;13.00;;
19905;SDS011;10115;50.906;4.438;2023-04-19T06:30:38;18.63;;;14.97;;
19905;SDS011;10115;50.906;4.438;2023-04-19T06:33:04;15.83;;;13.33;;
19905;SDS011;10115;50.906;4.438;2023-04-19T06:35:30;20.83;;;14.50;;
19905;SDS011;10115;50.906;4.438;2023-04-19T06:37:57;14.97;;;13.47;;
19905;SDS011;10115;50.906;4.438;2023-04-19T06:40:23;20.23;;;12.87;;
19905;SDS011;10115;50.906;4.438;2023-04-19T06:42:50;18.10;;;13.70;;
19905;SDS011;10115;50.906;4.438;2023-04-19T06:45:16;20.40;;;13.23;;
19905;SDS011;10115;50.906;4.438;2023-04-19T06:47:42;18.57;;;12.57;;
19905;SDS011;10115;50.906;4.438;2023-04-19T06:50:08;16.23;;;12.83;;
19905;SDS011;10115;50.906;4.438;2023-04-19T06:52:35;18.87;;;13.33;;
19905;SDS011;10115;50.906;4.438;2023-04-19T06:55:01;16.07;;;12.23;;
19905;SDS011;10115;50.906;4.438;2023-04-19T06:57:26;21.63;;;13.00;;
19905;SDS011;10115;50.906;4.438;2023-04-19T06:59:53;15.90;;;12.50;;
19905;SDS011;10115;50.906;4.438;2023-04-19T07:02:19;14.67;;;11.93;;
19905;SDS011;10115;50.906;4.438;2023-04-19T07:04:45;20.20;;;13.37;;
19905;SDS011;10115;50.906;4.438;2023-04-19T07:07:12;14.87;;;11.83;;
19905;SDS011;10115;50.906;4.438;2023-04-19T07:09:37;14.93;;;11.50;;
19905;SDS011;10115;50.906;4.438;2023-04-19T07:12:04;19.53;;;14.03;;
19905;SDS011;10115;50.906;4.438;2023-04-19T07:14:30;22.53;;;12.83;;
19905;SDS011;10115;50.906;4.438;2023-04-19T07:16:56;14.70;;;11.83;;
19905;SDS011;10115;50.906;4.438;2023-04-19T07:19:22;17.60;;;13.23;;
19905;SDS011;10115;50.906;4.438;2023-04-19T07:21:47;14.57;;;12.17;;
19905;SDS011;10115;50.906;4.438;2023-04-19T07:24:14;16.17;;;13.33;;
19905;SDS011;10115;50.906;4.438;2023-04-19T07:26:40;13.23;;;11.30;;
19905;SDS011;10115;50.906;4.438;2023-04-19T07:29:05;16.50;;;11.90;;
19905;SDS011;10115;50.906;4.438;2023-04-19T07:31:31;15.57;;;12.40;;
19905;SDS011;10115;50.906;4.438;2023-04-19T07:33:57;15.67;;;11.17;;
19905;SDS011;10115;50.906;4.438;2023-04-19T07:36:22;14.90;;;11.67;;
19905;SDS011;10115;50.906;4.438;2023-04-19T07:38:48;12.83;;;10.93;;
19905;SDS011;10115;50.906;4.438;2023-04-19T07:41:14;16.10;;;12.43;;
19905;SDS011;10115;50.906;4.438;2023-04-19T07:43:40;16.27;;;11.83;;
19905;SDS011;10115;50.906;4.438;2023-04-19T07:46:09;15.83;;;11.83;;
19905;SDS011;10115;50.906;4.438;2023-04-19T07:48:36;15.57;;;11.37;;
19905;SDS011;10115;50.906;4.438;2023-04-19T07:51:11;11.57;;;10.43;;
19905;SDS011;10115;50.906;4.438;2023-04-19T07:53:41;15.43;;;11.37;;
19905;SDS011;10115;50.906;4.438;2023-04-19T07:56:07;12.77;;;10.50;;
19905;SDS011;10115;50.906;4.438;2023-04-19T07:58:35;13.97;;;10.77;;
19905;SDS011;10115;50.906;4.438;2023-04-19T08:01:02;12.73;;;11.27;;
19905;SDS011;10115;50.906;4.438;2023-04-19T08:03:28;14.93;;;12.07;;
19905;SDS011;10115;50.906;4.438;2023-04-19T08:05:55;12.03;;;10.67;;
19905;SDS011;10115;50.906;4.438;2023-04-19T08:08:22;11.37;;;9.83;;
19905;SDS011;10115;50.906;4.438;2023-04-19T08:10:49;10.43;;;9.33;;
19905;SDS011;10115;50.906;4.438;2023-04-19T08:13:14;16.63;;;10.07;;
19905;SDS011;10115;50.906;4.438;2023-04-19T08:15:40;13.77;;;10.93;;
19905;SDS011;10115;50.906;4.438;2023-04-19T08:18:06;14.30;;;10.67;;
19905;SDS011;10115;50.906;4.438;2023-04-19T08:20:32;11.83;;;9.67;;
19905;SDS011;10115;50.906;4.438;2023-04-19T08:22:58;11.70;;;9.90;;
19905;SDS011;10115;50.906;4.438;2023-04-19T08:25:24;10.93;;;9.80;;
19905;SDS011;10115;50.906;4.438;2023-04-19T08:27:52;13.33;;;10.03;;
19905;SDS011;10115;50.906;4.438;2023-04-19T08:30:18;13.87;;;11.27;;
19905;SDS011;10115;50.906;4.438;2023-04-19T08:32:44;14.43;;;8.27;;
19905;SDS011;10115;50.906;4.438;2023-04-19T08:35:10;11.57;;;9.27;;
19905;SDS011;10115;50.906;4.438;2023-04-19T08:37:36;11.60;;;10.13;;
19905;SDS011;10115;50.906;4.438;2023-04-19T08:40:01;9.47;;;8.53;;
19905;SDS011;10115;50.906;4.438;2023-04-19T08:42:28;14.13;;;10.30;;
19905;SDS011;10115;50.906;4.438;2023-04-19T08:44:56;12.17;;;9.90;;
19905;SDS011;10115;50.906;4.438;2023-04-19T08:47:26;14.50;;;10.07;;
19905;SDS011;10115;50.906;4.438;2023-04-19T08:49:52;9.77;;;8.83;;
19905;SDS011;10115;50.906;4.438;2023-04-19T08:52:21;11.20;;;9.53;;
19905;SDS011;10115;50.906;4.438;2023-04-19T08:54:48;12.60;;;9.30;;
19905;SDS011;10115;50.906;4.438;2023-04-19T08:57:15;10.37;;;7.83;;
19905;SDS011;10115;50.906;4.438;2023-04-19T08:59:41;12.10;;;9.00;;
19905;SDS011;10115;50.906;4.438;2023-04-19T09:02:09;9.67;;;8.47;;
19905;SDS011;10115;50.906;4.438;2023-04-19T09:04:35;8.63;;;7.90;;
19905;SDS011;10115;50.906;4.438;2023-04-19T09:07:01;9.90;;;8.90;;
19905;SDS011;10115;50.906;4.438;2023-04-19T09:09:28;9.13;;;8.30;;
19905;SDS011;10115;50.906;4.438;2023-04-19T09:11:54;11.67;;;8.70;;
19905;SDS011;10115;50.906;4.438;2023-04-19T09:14:22;13.10;;;9.27;;
19905;SDS011;10115;50.906;4.438;2023-04-19T09:16:49;9.97;;;8.57;;
19905;SDS011;10115;50.906;4.438;2023-04-19T09:19:16;10.90;;;8.63;;
19905;SDS011;10115;50.906;4.438;2023-04-19T09:21:42;9.47;;;8.47;;
19905;SDS011;10115;50.906;4.438;2023-04-19T09:24:08;10.50;;;9.57;;
19905;SDS011;10115;50.906;4.438;2023-04-19T09:26:34;10.97;;;8.63;;
19905;SDS011;10115;50.906;4.438;2023-04-19T09:29:01;10.30;;;8.80;;
19905;SDS011;10115;50.906;4.438;2023-04-19T09:31:31;10.23;;;8.50;;
19905;SDS011;10115;50.906;4.438;2023-04-19T09:36:42;8.43;;;7.63;;
19905;SDS011;10115;50.906;4.438;2023-04-19T09:39:08;8.77;;;7.97;;
19905;SDS011;10115;50.906;4.438;2023-04-19T09:41:35;9.63;;;8.53;;
19905;SDS011;10115;50.906;4.438;2023-04-19T09:44:15;9.50;;;8.53;;
19905;SDS011;10115;50.906;4.438;2023-04-19T09:46:41;11.70;;;8.47;;
19905;SDS011;10115;50.906;4.438;2023-04-19T09:51:47;8.10;;;7.40;;
19905;SDS011;10115;50.906;4.438;2023-04-19T09:54:15;8.53;;;7.70;;
19905;SDS011;10115;50.906;4.438;2023-04-19T09:56:42;14.00;;;8.17;;
19905;SDS011;10115;50.906;4.438;2023-04-19T09:59:08;10.97;;;8.23;;
19905;SDS011;10115;50.906;4.438;2023-04-19T10:01:37;9.07;;;8.10;;
19905;SDS011;10115;50.906;4.438;2023-04-19T10:04:06;8.90;;;8.03;;
19905;SDS011;10115;50.906;4.438;2023-04-19T10:06:35;8.73;;;7.80;;
19905;SDS011;10115;50.906;4.438;2023-04-19T10:09:03;10.10;;;7.20;;
19905;SDS011;10115;50.906;4.438;2023-04-19T10:11:30;10.23;;;8.30;;
19905;SDS011;10115;50.906;4.438;2023-04-19T10:14:03;8.57;;;7.87;;
19905;SDS011;10115;50.906;4.438;2023-04-19T10:16:33;11.27;;;8.60;;
19905;SDS011;10115;50.906;4.438;2023-04-19T10:19:03;9.90;;;7.60;;
19905;SDS011;10115;50.906;4.438;2023-04-19T10:21:34;11.63;;;8.03;;
19905;SDS011;10115;50.906;4.438;2023-04-19T10:24:01;9.67;;;8.10;;
19905;SDS011;10115;50.906;4.438;2023-04-19T10:26:27;8.00;;;7.37;;
19905;SDS011;10115;50.906;4.438;2023-04-19T10:28:53;9.00;;;6.77;;
19905;SDS011;10115;50.906;4.438;2023-04-19T10:31:21;17.67;;;7.33;;
19905;SDS011;10115;50.906;4.438;2023-04-19T10:33:49;8.53;;;7.60;;
19905;SDS011;10115;50.906;4.438;2023-04-19T10:36:19;8.20;;;7.33;;
19905;SDS011;10115;50.906;4.438;2023-04-19T10:38:49;8.77;;;7.10;;
19905;SDS011;10115;50.906;4.438;2023-04-19T10:41:19;7.70;;;7.00;;
19905;SDS011;10115;50.906;4.438;2023-04-19T10:48:55;6.90;;;6.30;;
19905;SDS011;10115;50.906;4.438;2023-04-19T10:51:31;7.20;;;6.50;;
19905;SDS011;10115;50.906;4.438;2023-04-19T11:01:44;7.73;;;7.03;;
19905;SDS011;10115;50.906;4.438;2023-04-19T11:04:18;7.80;;;7.00;;
19905;SDS011;10115;50.906;4.438;2023-04-19T11:07:04;7.57;;;6.57;;
19905;SDS011;10115;50.906;4.438;2023-04-19T11:09:34;7.60;;;6.83;;
19905;SDS011;10115;50.906;4.438;2023-04-19T11:12:13;7.43;;;6.67;;
19905;SDS011;10115;50.906;4.438;2023-04-19T11:14:40;6.73;;;6.10;;
19905;SDS011;10115;50.906;4.438;2023-04-19T11:17:22;9.40;;;6.73;;
19905;SDS011;10115;50.906;4.438;2023-04-19T11:22:40;7.30;;;6.70;;
19905;SDS011;10115;50.906;4.438;2023-04-19T11:27:36;10.20;;;7.53;;
19905;SDS011;10115;50.906;4.438;2023-04-19T11:30:06;7.87;;;7.07;;
19905;SDS011;10115;50.906;4.438;2023-04-19T11:32:34;7.73;;;7.10;;
19905;SDS011;10115;50.906;4.438;2023-04-19T11:35:06;8.97;;;7.90;;
19905;SDS011;10115;50.906;4.438;2023-04-19T11:37:35;9.50;;;7.53;;
19905;SDS011;10115;50.906;4.438;2023-04-19T11:40:02;7.63;;;6.90;;
19905;SDS011;10115;50.906;4.438;2023-04-19T11:42:31;7.07;;;6.37;;
19905;SDS011;10115;50.906;4.438;2023-04-19T11:44:58;7.63;;;6.83;;
19905;SDS011;10115;50.906;4.438;2023-04-19T11:47:24;8.93;;;8.03;;
19905;SDS011;10115;50.906;4.438;2023-04-19T11:49:51;6.80;;;6.10;;
19905;SDS011;10115;50.906;4.438;2023-04-19T11:52:22;11.53;;;7.80;;
19905;SDS011;10115;50.906;4.438;2023-04-19T11:54:49;7.70;;;7.00;;
19905;SDS011;10115;50.906;4.438;2023-04-19T11:57:28;8.40;;;7.37;;
19905;SDS011;10115;50.906;4.438;2023-04-19T12:00:02;8.30;;;6.93;;
19905;SDS011;10115;50.906;4.438;2023-04-19T12:02:38;8.43;;;7.37;;
19905;SDS011;10115;50.906;4.438;2023-04-19T12:05:11;8.57;;;7.77;;
19905;SDS011;10115;50.906;4.438;2023-04-19T12:10:28;7.17;;;6.13;;
19905;SDS011;10115;50.906;4.438;2023-04-19T12:12:55;8.13;;;6.40;;
19905;SDS011;10115;50.906;4.438;2023-04-19T12:15:21;7.27;;;6.67;;
19905;SDS011;10115;50.906;4.438;2023-04-19T12:17:59;8.03;;;7.23;;
19905;SDS011;10115;50.906;4.438;2023-04-19T12:20:27;7.93;;;7.13;;
19905;SDS011;10115;50.906;4.438;2023-04-19T12:22:57;7.50;;;6.70;;
19905;SDS011;10115;50.906;4.438;2023-04-19T12:25:26;6.83;;;6.27;;
19905;SDS011;10115;50.906;4.438;2023-04-19T12:27:56;7.10;;;6.50;;
19905;SDS011;10115;50.906;4.438;2023-04-19T12:30:22;7.20;;;6.70;;
19905;SDS011;10115;50.906;4.438;2023-04-19T12:32:48;7.60;;;6.57;;
19905;SDS011;10115;50.906;4.438;2023-04-19T12:35:15;9.83;;;6.33;;
19905;SDS011;10115;50.906;4.438;2023-04-19T12:37:41;7.07;;;6.43;;
19905;SDS011;10115;50.906;4.438;2023-04-19T12:40:07;8.30;;;6.20;;
19905;SDS011;10115;50.906;4.438;2023-04-19T12:42:34;6.50;;;5.90;;
19905;SDS011;10115;50.906;4.438;2023-04-19T12:45:00;7.63;;;6.27;;
19905;SDS011;10115;50.906;4.438;2023-04-19T12:47:26;6.10;;;5.47;;
19905;SDS011;10115;50.906;4.438;2023-04-19T12:49:52;6.63;;;5.87;;
19905;SDS011;10115;50.906;4.438;2023-04-19T12:52:21;6.20;;;5.20;;
19905;SDS011;10115;50.906;4.438;2023-04-19T12:54:47;6.40;;;5.77;;
19905;SDS011;10115;50.906;4.438;2023-04-19T12:57:13;6.93;;;5.77;;
19905;SDS011;10115;50.906;4.438;2023-04-19T12:59:38;7.70;;;6.03;;
19905;SDS011;10115;50.906;4.438;2023-04-19T13:02:04;6.90;;;6.30;;
19905;SDS011;10115;50.906;4.438;2023-04-19T13:04:31;7.00;;;5.57;;
19905;SDS011;10115;50.906;4.438;2023-04-19T13:06:56;6.60;;;6.07;;
19905;SDS011;10115;50.906;4.438;2023-04-19T13:09:22;6.40;;;5.77;;
19905;SDS011;10115;50.906;4.438;2023-04-19T13:11:48;6.27;;;5.70;;
19905;SDS011;10115;50.906;4.438;2023-04-19T13:14:13;6.53;;;5.97;;
19905;SDS011;10115;50.906;4.438;2023-04-19T13:16:39;6.93;;;5.43;;
19905;SDS011;10115;50.906;4.438;2023-04-19T13:19:05;6.50;;;4.93;;
19905;SDS011;10115;50.906;4.438;2023-04-19T13:21:32;5.83;;;5.40;;
19905;SDS011;10115;50.906;4.438;2023-04-19T13:23:57;5.30;;;4.90;;
19905;SDS011;10115;50.906;4.438;2023-04-19T13:26:23;5.90;;;5.30;;
19905;SDS011;10115;50.906;4.438;2023-04-19T13:28:49;5.70;;;4.70;;
19905;SDS011;10115;50.906;4.438;2023-04-19T13:31:15;5.33;;;4.93;;
19905;SDS011;10115;50.906;4.438;2023-04-19T13:33:42;5.33;;;4.93;;
19905;SDS011;10115;50.906;4.438;2023-04-19T13:36:08;5.37;;;4.87;;
19905;SDS011;10115;50.906;4.438;2023-04-19T13:38:33;4.97;;;4.67;;
19905;SDS011;10115;50.906;4.438;2023-04-19T13:40:59;5.07;;;4.60;;
19905;SDS011;10115;50.906;4.438;2023-04-19T13:43:26;4.00;;;3.73;;
19905;SDS011;10115;50.906;4.438;2023-04-19T13:45:52;7.30;;;4.40;;
19905;SDS011;10115;50.906;4.438;2023-04-19T13:48:18;8.23;;;5.63;;
19905;SDS011;10115;50.906;4.438;2023-04-19T13:50:44;4.53;;;4.23;;
19905;SDS011;10115;50.906;4.438;2023-04-19T13:53:09;4.80;;;4.50;;
19905;SDS011;10115;50.906;4.438;2023-04-19T13:55:35;4.20;;;4.00;;
19905;SDS011;10115;50.906;4.438;2023-04-19T13:58:01;4.23;;;3.93;;
19905;SDS011;10115;50.906;4.438;2023-04-19T14:00:26;4.53;;;4.13;;
19905;SDS011;10115;50.906;4.438;2023-04-19T14:02:53;4.07;;;3.77;;
19905;SDS011;10115;50.906;4.438;2023-04-19T14:05:20;3.97;;;3.67;;
19905;SDS011;10115;50.906;4.438;2023-04-19T14:07:47;4.80;;;3.77;;
19905;SDS011;10115;50.906;4.438;2023-04-19T14:10:12;4.83;;;4.33;;
19905;SDS011;10115;50.906;4.438;2023-04-19T14:12:38;8.73;;;4.40;;
19905;SDS011;10115;50.906;4.438;2023-04-19T14:15:04;6.77;;;3.93;;
19905;SDS011;10115;50.906;4.438;2023-04-19T14:17:30;3.90;;;3.67;;
19905;SDS011;10115;50.906;4.438;2023-04-19T14:19:56;3.57;;;3.37;;
19905;SDS011;10115;50.906;4.438;2023-04-19T14:22:21;3.97;;;3.67;;
19905;SDS011;10115;50.906;4.438;2023-04-19T14:24:47;3.60;;;3.40;;
19905;SDS011;10115;50.906;4.438;2023-04-19T14:27:13;4.07;;;3.63;;
19905;SDS011;10115;50.906;4.438;2023-04-19T14:29:38;3.97;;;3.67;;
19905;SDS011;10115;50.906;4.438;2023-04-19T14:32:04;4.43;;;4.03;;
19905;SDS011;10115;50.906;4.438;2023-04-19T14:34:30;5.60;;;3.70;;
19905;SDS011;10115;50.906;4.438;2023-04-19T14:36:57;3.30;;;3.10;;
19905;SDS011;10115;50.906;4.438;2023-04-19T14:39:22;8.27;;;4.00;;
19905;SDS011;10115;50.906;4.438;2023-04-19T14:41:48;3.83;;;3.53;;
19905;SDS011;10115;50.906;4.438;2023-04-19T14:44:14;4.03;;;3.73;;
19905;SDS011;10115;50.906;4.438;2023-04-19T14:46:39;4.17;;;3.87;;
19905;SDS011;10115;50.906;4.438;2023-04-19T14:49:05;4.83;;;4.23;;
19905;SDS011;10115;50.906;4.438;2023-04-19T14:51:31;4.30;;;4.00;;
19905;SDS011;10115;50.906;4.438;2023-04-19T14:53:57;3.90;;;3.60;;